Time;durP1;ratioP1;P1;durP2;ratioP2;P2;SDS_P1;SDS_P2;PMS_P1;PMS_P2;Temp;Humidity;BMP_temperature;BMP_pressure;BME280_temperature;BME280_humidity;BME280_pressure;Samples;Min_cycle;Max_cycle;Signal;HPM_P1;HPM_P2
2021/12/11 00:05:55;;;;;;;69.22;38.58;;;;;;;;;;4286322;33;20111;-74
2021/12/11 00:08:29;;;;;;;;;;;;;;;;;;4294952;33;20058;-74
2021/12/11 00:14:34;;;;;;;77.95;38.90;;;;;;;;;;4315978;33;20031;-74
2021/12/11 00:17:18;;;;;;;77.03;42.08;;;;;;;;;;4329105;33;20058;-74
2021/12/11 00:22:47;;;;;;;77.95;37.58;;;;;;;;;;4325418;33;20046;-75
2021/12/11 00:44:00;;;;;;;95.75;43.28;;;;;;;;;;4244459;33;20052;-74
2021/12/11 00:47:01;;;;;;;;;;;;;;;;;;;;;
2021/12/11 00:59:00;;;;;;;71.12;35.55;;;;;;;;;;4197061;34;20032;-75
2021/12/11 01:11:13;;;;;;;;;;;;;;;;;;;;;
2021/12/11 01:38:06;;;;;;;57.60;33.40;;;;;;;;;;4271360;33;20044;-75
2021/12/11 01:40:32;;;;;;;60.70;33.80;;;;;;;;;;4241372;33;20057;-75
2021/12/11 01:46:00;;;;;;;69.60;35.35;;;;;;;;;;4241201;33;19993;-74
2021/12/11 01:48:27;;;;;;;72.20;37.00;;;;;;;;;;4267538;33;20041;-75
2021/12/11 01:51:23;;;;;;;58.00;34.38;;;;;;;;;;4360347;33;20076;-75
2021/12/11 02:12:40;;;;;;;64.87;35.80;;;;;;;;;;4201922;33;20239;-74
2021/12/11 02:15:19;;;;;;;58.63;32.90;;;;;;;;;;4212510;34;20083;-74
2021/12/11 02:18:00;;;;;;;68.15;34.97;;;;;;;;;;4266172;33;20417;-74
2021/12/11 02:20:35;;;;;;;69.82;37.38;;;;;;;;;;4322471;33;20035;-75
2021/12/11 02:32:25;;;;;;;64.30;33.03;;;;;;;;;;4329420;33;20390;-74
2021/12/11 02:34:53;;;;;;;64.60;33.60;;;;;;;;;;4327651;33;20437;-74
2021/12/11 02:38:07;;;;;;;69.37;36.30;;;;;;;;;;4342251;33;20217;-75
2021/12/11 02:40:41;;;;;;;65.18;34.05;;;;;;;;;;4307074;33;20025;-75
2021/12/11 02:43:12;;;;;;;61.35;34.50;;;;;;;;;;4362931;32;20439;-75
2021/12/11 02:45:40;;;;;;;76.53;34.83;;;;;;;;;;4348564;33;20020;-75
2021/12/11 02:48:26;;;;;;;74.53;34.42;;;;;;;;;;4362367;32;20428;-75
2021/12/11 02:51:10;;;;;;;66.68;33.67;;;;;;;;;;4301612;33;20044;-75
2021/12/11 02:53:54;;;;;;;69.37;36.60;;;;;;;;;;4359866;33;20047;-74
2021/12/11 02:56:27;;;;;;;65.95;33.17;;;;;;;;;;4361833;33;20366;-74
2021/12/11 02:58:56;;;;;;;70.80;35.55;;;;;;;;;;4349049;33;20027;-75
2021/12/11 03:04:36;;;;;;;60.88;34.78;;;;;;;;;;4362496;32;20030;-74
2021/12/11 03:07:05;;;;;;;75.68;36.17;;;;;;;;;;4362600;32;20019;-74
2021/12/11 03:09:41;;;;;;;78.47;35.85;;;;;;;;;;4348087;33;20105;-74
2021/12/11 03:12:26;;;;;;;71.07;34.05;;;;;;;;;;4362241;32;20058;-74
2021/12/11 03:14:52;;;;;;;67.60;36.47;;;;;;;;;;4362309;32;20413;-74
2021/12/11 03:17:17;;;;;;;;;;;;;;;;;;4362066;32;20027;-75
2021/12/11 03:20:02;;;;;;;78.50;35.67;;;;;;;;;;4372168;32;19938;-74
2021/12/11 03:25:20;;;;;;;74.18;38.08;;;;;;;;;;4376983;32;20069;-75
2021/12/11 03:27:46;;;;;;;73.72;36.40;;;;;;;;;;4376748;32;20062;-75
2021/12/11 03:30:11;;;;;;;;;;;;;;;;;;4376900;32;20035;-75
2021/12/11 03:33:17;;;;;;;72.12;37.53;;;;;;;;;;4376373;32;19969;-74
2021/12/11 03:35:42;;;;;;;74.87;37.47;;;;;;;;;;4376473;32;20056;-74
2021/12/11 03:38:07;;;;;;;;;;;;;;;;;;4376701;32;20406;-74
2021/12/11 03:40:39;;;;;;;75.87;35.38;;;;;;;;;;4376579;32;20044;-75
2021/12/11 03:43:14;;;;;;;71.55;37.10;;;;;;;;;;4376944;32;20030;-75
2021/12/11 03:45:41;;;;;;;70.55;37.53;;;;;;;;;;4376762;32;20420;-75
2021/12/11 03:48:09;;;;;;;75.30;37.22;;;;;;;;;;4376610;32;20420;-74
2021/12/11 03:50:36;;;;;;;72.95;37.80;;;;;;;;;;4377346;32;20035;-75
2021/12/11 03:53:18;;;;;;;74.12;37.58;;;;;;;;;;4375830;32;20046;-74
2021/12/11 03:55:46;;;;;;;71.10;34.50;;;;;;;;;;4375337;32;20377;-74
2021/12/11 03:58:12;;;;;;;90.00;38.90;;;;;;;;;;4377008;32;20106;-74
2021/12/11 04:00:37;;;;;;;;;;;;;;;;;;4376421;32;20050;-74
2021/12/11 04:03:16;;;;;;;72.37;34.88;;;;;;;;;;4375944;32;19934;-74
2021/12/11 04:05:42;;;;;;;69.60;34.38;;;;;;;;;;4374417;32;20126;-74
2021/12/11 04:08:09;;;;;;;72.62;36.53;;;;;;;;;;4375377;32;20015;-74
2021/12/11 04:10:34;;;;;;;73.87;36.55;;;;;;;;;;4375825;32;20085;-74
2021/12/11 04:16:13;;;;;;;77.95;35.13;;;;;;;;;;4329419;33;19935;-74
2021/12/11 04:18:39;;;;;;;68.05;33.55;;;;;;;;;;4375832;32;20054;-75
2021/12/11 04:21:04;;;;;;;;;;;;;;;;;;4376594;32;20353;-74
2021/12/11 04:26:43;;;;;;;62.65;32.35;;;;;;;;;;4375973;32;20106;-74
2021/12/11 04:29:09;;;;;;;67.32;33.45;;;;;;;;;;4375913;32;20030;-75
2021/12/11 04:31:36;;;;;;;;;;;;;;;;;;4375395;32;20038;-74
2021/12/11 04:34:32;;;;;;;68.12;29.90;;;;;;;;;;4375669;32;19942;-74
2021/12/11 04:37:12;;;;;;;;;;;;;;;;;;;;;
2021/12/11 04:39:47;;;;;;;81.47;34.85;;;;;;;;;;4372660;32;20039;-74
2021/12/11 04:43:05;;;;;;;69.80;33.22;;;;;;;;;;4375409;32;20076;-74
2021/12/11 04:45:11;;;;;;;88.12;36.50;;;;;;;;;;4369732;32;20062;-74
2021/12/11 05:12:56;;;;;;;66.32;33.58;;;;;;;;;;4329349;33;20074;-74
2021/12/11 05:15:28;;;;;;;64.15;30.90;;;;;;;;;;4314937;33;20040;-74
2021/12/11 05:17:54;;;;;;;67.35;31.40;;;;;;;;;;4315286;33;20046;-74
2021/12/11 05:20:19;;;;;;;;;;;;;;;;;;4356500;32;20450;-74
2021/12/11 05:22:45;;;;;;;64.55;31.00;;;;;;;;;;4370156;32;19938;-74
2021/12/11 05:25:10;;;;;;;;;;;;;;;;;;4376368;32;20467;-73
2021/12/11 05:30:26;;;;;;;67.78;31.40;;;;;;;;;;4362113;32;20630;-74
2021/12/11 05:32:54;;;;;;;68.50;31.92;;;;;;;;;;4375511;32;20023;-74
2021/12/11 05:35:19;;;;;;;60.72;32.28;;;;;;;;;;4375086;32;20031;-74
2021/12/11 05:37:48;;;;;;;;;;;;;;;;;;4376526;32;20353;-75
2021/12/11 05:40:15;;;;;;;56.80;29.42;;;;;;;;;;4374818;32;19942;-74
2021/12/11 05:42:40;;;;;;;66.22;30.48;;;;;;;;;;4375316;32;20027;-74
2021/12/11 05:45:05;;;;;;;;;;;;;;;;;;4376236;32;20031;-74
2021/12/11 05:47:50;;;;;;;53.40;24.58;;;;;;;;;;4374978;32;19957;-74
2021/12/11 05:50:37;;;;;;;44.28;20.65;;;;;;;;;;4376454;32;20148;-75
2021/12/11 05:53:35;;;;;;;38.20;15.68;;;;;;;;;;4378249;32;20049;-76
2021/12/11 05:59:01;;;;;;;27.67;11.50;;;;;;;;;;4378508;32;20081;-76
2021/12/11 06:04:29;;;;;;;33.20;7.18;;;;;;;;;;4378178;32;20388;-75
2021/12/11 06:16:37;;;;;;;21.05;3.15;;;;;;;;;;4377886;32;20404;-75
2021/12/11 06:19:43;;;;;;;;;;;;;;;;;;;;;
2021/12/11 06:22:19;;;;;;;19.73;2.33;;;;;;;;;;4315544;33;20044;-75
2021/12/11 06:30:38;;;;;;;18.02;3.33;;;;;;;;;;4335168;32;20079;-74
2021/12/11 06:33:36;;;;;;;17.35;2.85;;;;;;;;;;4377930;32;20023;-74
2021/12/11 06:36:08;;;;;;;15.15;3.05;;;;;;;;;;4371690;32;20053;-75
2021/12/11 06:48:29;;;;;;;11.23;3.53;;;;;;;;;;4301728;33;20086;-76
2021/12/11 06:50:57;;;;;;;11.70;3.20;;;;;;;;;;4315024;33;20028;-76
2021/12/11 06:53:30;;;;;;;13.70;3.50;;;;;;;;;;4331190;33;20103;-75
2021/12/11 06:55:58;;;;;;;17.45;3.97;;;;;;;;;;4370391;32;20094;-75
2021/12/11 06:58:51;;;;;;;;;;;;;;;;;;;;;
2021/12/11 07:01:39;;;;;;;;;;;;;;;;;;;;;
2021/12/11 07:04:34;;;;;;;15.38;5.57;;;;;;;;;;4376845;32;20045;-74
2021/12/11 07:07:00;;;;;;;15.80;5.50;;;;;;;;;;4361064;32;20081;-74
2021/12/11 07:09:25;;;;;;;;;;;;;;;;;;4377136;32;20038;-75
2021/12/11 07:12:00;;;;;;;16.00;5.90;;;;;;;;;;4377261;32;20264;-75
2021/12/11 07:14:30;;;;;;;19.10;7.32;;;;;;;;;;4377267;32;20027;-75
2021/12/11 07:17:09;;;;;;;15.48;5.93;;;;;;;;;;4376638;32;20057;-75
2021/12/11 07:22:49;;;;;;;16.27;6.30;;;;;;;;;;4366297;32;20393;-75
2021/12/11 07:25:37;;;;;;;13.80;6.50;;;;;;;;;;4375997;32;20050;-75
2021/12/11 07:28:08;;;;;;;12.20;5.70;;;;;;;;;;4376423;32;20061;-74
2021/12/11 07:30:57;;;;;;;19.75;8.20;;;;;;;;;;4377068;32;20027;-75
2021/12/11 07:33:22;;;;;;;23.05;8.27;;;;;;;;;;4378757;32;20049;-75
2021/12/11 07:35:47;;;;;;;;;;;;;;;;;;4385383;32;20027;-74
2021/12/11 07:38:32;;;;;;;22.83;9.13;;;;;;;;;;4379036;32;19965;-74
2021/12/11 07:44:09;;;;;;;20.15;10.15;;;;;;;;;;4329944;33;20040;-75
2021/12/11 07:46:36;;;;;;;26.55;11.57;;;;;;;;;;4391348;32;20031;-75
2021/12/11 07:49:03;;;;;;;25.35;11.68;;;;;;;;;;4387030;32;20054;-74
2021/12/11 07:51:30;;;;;;;26.62;13.82;;;;;;;;;;4375943;32;20035;-75
2021/12/11 07:53:58;;;;;;;26.48;16.08;;;;;;;;;;4362809;32;20027;-75
2021/12/11 07:56:26;;;;;;;36.47;17.67;;;;;;;;;;4376349;32;20023;-74
2021/12/11 07:58:54;;;;;;;37.03;17.70;;;;;;;;;;4376323;32;20077;-74
2021/12/11 08:01:19;;;;;;;39.13;18.27;;;;;;;;;;4376137;32;20031;-74
2021/12/11 08:03:48;;;;;;;;;;;;;;;;;;4376562;32;20118;-74
2021/12/11 08:06:13;;;;;;;42.45;19.55;;;;;;;;;;4376217;32;19946;-74
2021/12/11 08:08:39;;;;;;;;;;;;;;;;;;4376416;32;20094;-74
2021/12/11 08:11:06;;;;;;;45.67;20.75;;;;;;;;;;4375840;32;19941;-74
2021/12/11 08:13:31;;;;;;;54.42;23.23;;;;;;;;;;4376670;32;20142;-74
2021/12/11 08:15:56;;;;;;;;;;;;;;;;;;4376912;32;20459;-74
2021/12/11 08:18:22;;;;;;;50.12;22.73;;;;;;;;;;4359542;32;19956;-74
2021/12/11 08:20:47;;;;;;;;;;;;;;;;;;4376262;32;20065;-74
2021/12/11 08:23:14;;;;;;;51.50;25.10;;;;;;;;;;4376118;32;19957;-74
2021/12/11 08:25:40;;;;;;;61.25;26.23;;;;;;;;;;4375732;32;20061;-74
2021/12/11 08:28:07;;;;;;;55.90;26.02;;;;;;;;;;4361941;32;20455;-74
2021/12/11 08:30:34;;;;;;;54.72;26.37;;;;;;;;;;4362773;32;20345;-74
2021/12/11 08:33:00;;;;;;;47.97;26.40;;;;;;;;;;4362177;32;20095;-74
2021/12/11 08:35:25;;;;;;;;;;;;;;;;;;4362443;32;20085;-74
2021/12/11 08:37:50;;;;;;;63.42;26.65;;;;;;;;;;4375118;32;20003;-74
2021/12/11 08:40:17;;;;;;;;;;;;;;;;;;4376237;32;20189;-74
2021/12/11 08:42:42;;;;;;;61.73;28.40;;;;;;;;;;4375359;32;19984;-74
2021/12/11 08:45:09;;;;;;;;;;;;;;;;;;4375887;32;20035;-74
2021/12/11 08:47:39;;;;;;;59.03;27.75;;;;;;;;;;4376675;32;19954;-74
2021/12/11 08:50:05;;;;;;;55.47;26.23;;;;;;;;;;4375694;32;20065;-74
2021/12/11 08:52:33;;;;;;;64.75;29.48;;;;;;;;;;4375489;32;20049;-74
2021/12/11 08:55:07;;;;;;;62.30;29.35;;;;;;;;;;4375431;32;20081;-74
2021/12/11 08:57:33;;;;;;;56.63;29.02;;;;;;;;;;4363074;32;20022;-75
2021/12/11 08:59:58;;;;;;;;;;;;;;;;;;4376086;32;20015;-76
2021/12/11 09:02:26;;;;;;;60.25;27.23;;;;;;;;;;4375299;32;20381;-76
2021/12/11 09:04:54;;;;;;;58.53;28.55;;;;;;;;;;4375732;32;20319;-74
2021/12/11 09:07:49;;;;;;;57.58;27.92;;;;;;;;;;4375017;32;20132;-75
2021/12/11 09:10:38;;;;;;;51.60;26.90;;;;;;;;;;4370129;32;20401;-74
2021/12/11 09:13:29;;;;;;;54.53;27.50;;;;;;;;;;4375189;32;20053;-75
2021/12/11 09:19:08;;;;;;;55.88;27.15;;;;;;;;;;4300447;33;20429;-74
2021/12/11 09:21:55;;;;;;;49.97;26.70;;;;;;;;;;4367924;32;20071;-75
2021/12/11 09:24:39;;;;;;;;;;;;;;;;;;;;;
2021/12/11 09:27:11;;;;;;;50.90;25.37;;;;;;;;;;4374422;32;20034;-75
2021/12/11 09:32:53;;;;;;;43.25;22.85;;;;;;;;;;4375400;32;20054;-75
2021/12/11 09:35:30;;;;;;;43.25;20.77;;;;;;;;;;4374249;32;20035;-74
2021/12/11 09:37:58;;;;;;;41.37;19.27;;;;;;;;;;4375741;32;20409;-74
2021/12/11 09:40:46;;;;;;;39.95;22.25;;;;;;;;;;4374608;32;20076;-74
2021/12/11 09:43:24;;;;;;;33.33;20.20;;;;;;;;;;4361412;32;20338;-75
2021/12/11 09:45:49;;;;;;;35.20;19.73;;;;;;;;;;4375386;32;20038;-74
2021/12/11 09:48:15;;;;;;;;;;;;;;;;;;4375641;32;20030;-75
2021/12/11 09:50:59;;;;;;;38.25;22.05;;;;;;;;;;4374772;32;19942;-74
2021/12/11 09:53:30;;;;;;;43.00;22.50;;;;;;;;;;4361583;32;20065;-74
2021/12/11 09:56:02;;;;;;;43.17;22.25;;;;;;;;;;4375817;32;20019;-76
2021/12/11 09:58:37;;;;;;;36.83;20.85;;;;;;;;;;4375130;32;20096;-75
2021/12/11 10:01:09;;;;;;;33.22;19.92;;;;;;;;;;4371075;32;20039;-75
2021/12/11 10:03:39;;;;;;;34.90;20.98;;;;;;;;;;4375916;32;20062;-75
2021/12/11 10:06:13;;;;;;;42.35;22.77;;;;;;;;;;4361730;32;20440;-74
2021/12/11 10:08:43;;;;;;;40.12;22.90;;;;;;;;;;4375003;32;20412;-74
2021/12/11 10:11:08;;;;;;;43.17;24.27;;;;;;;;;;4376355;32;20364;-75
2021/12/11 10:13:33;;;;;;;;;;;;;;;;;;4375032;32;20065;-75
2021/12/11 10:16:00;;;;;;;42.83;21.33;;;;;;;;;;4374568;32;19935;-75
2021/12/11 10:18:32;;;;;;;33.40;20.80;;;;;;;;;;4374830;32;20093;-75
2021/12/11 10:21:09;;;;;;;38.55;20.73;;;;;;;;;;4374377;32;20040;-74
2021/12/11 10:23:36;;;;;;;36.97;21.20;;;;;;;;;;4374722;32;20043;-74
2021/12/11 10:26:10;;;;;;;35.58;20.85;;;;;;;;;;4360880;32;20407;-74
2021/12/11 10:29:03;;;;;;;36.42;21.10;;;;;;;;;;4376040;32;20031;-76
2021/12/11 10:35:14;;;;;;;28.83;15.80;;;;;;;;;;4242257;33;20034;-75
2021/12/11 10:38:02;;;;;;;23.80;14.75;;;;;;;;;;4243415;33;20060;-75
2021/12/11 10:40:50;;;;;;;22.45;14.82;;;;;;;;;;4299716;33;20224;-74
2021/12/11 10:43:46;;;;;;;;;;;;;;;;;;;;;
2021/12/11 10:49:39;;;;;;;20.45;12.30;;;;;;;;;;4259035;33;20521;-75
2021/12/11 10:58:37;;;;;;;20.15;11.95;;;;;;;;;;4376217;32;20569;-75
2021/12/11 11:01:15;;;;;;;21.12;11.93;;;;;;;;;;4377577;32;20031;-75
2021/12/11 11:06:56;;;;;;;18.02;11.55;;;;;;;;;;4347366;32;20034;-75
2021/12/11 11:09:22;;;;;;;;;;;;;;;;;;4377571;32;20069;-76
2021/12/11 11:12:13;;;;;;;13.93;9.10;;;;;;;;;;4376741;32;19993;-75
2021/12/11 11:33:51;;;;;;;15.75;7.30;;;;;;;;;;4221901;34;20125;-76
2021/12/11 11:37:19;;;;;;;16.27;7.30;;;;;;;;;;4227056;34;20030;-75
2021/12/11 11:40:07;;;;;;;14.52;6.45;;;;;;;;;;4215485;34;20159;-75
2021/12/11 11:48:41;;;;;;;13.98;6.72;;;;;;;;;;4263836;33;20075;-76
2021/12/11 11:54:18;;;;;;;25.20;9.10;;;;;;;;;;4271492;33;20452;-75
2021/12/11 11:57:12;;;;;;;24.92;7.80;;;;;;;;;;4345046;33;20085;-75
2021/12/11 11:59:39;;;;;;;18.33;6.80;;;;;;;;;;4362702;32;20038;-75
2021/12/11 12:02:25;;;;;;;20.80;6.45;;;;;;;;;;4364309;32;20039;-75
2021/12/11 12:04:58;;;;;;;21.48;6.85;;;;;;;;;;4361378;32;20510;-75
2021/12/11 12:07:30;;;;;;;18.87;7.45;;;;;;;;;;4361441;33;20079;-75
2021/12/11 12:10:18;;;;;;;20.65;7.00;;;;;;;;;;4360959;32;20044;-75
2021/12/11 12:12:48;;;;;;;23.55;7.40;;;;;;;;;;4361589;33;20023;-75
2021/12/11 12:15:22;;;;;;;16.50;7.35;;;;;;;;;;4361065;33;20053;-75
2021/12/11 12:17:47;;;;;;;13.32;6.40;;;;;;;;;;4361376;32;20031;-75
2021/12/11 12:23:39;;;;;;;13.50;5.75;;;;;;;;;;4329854;33;20369;-75
2021/12/11 12:26:30;;;;;;;18.52;6.12;;;;;;;;;;4288127;33;20049;-77
2021/12/11 12:28:56;;;;;;;23.98;6.72;;;;;;;;;;4299780;33;20044;-76
2021/12/11 12:34:57;;;;;;;24.90;6.10;;;;;;;;;;4314353;33;20595;-75
2021/12/11 12:37:23;;;;;;;18.55;5.25;;;;;;;;;;4309363;33;20040;-74
2021/12/11 12:39:48;;;;;;;;;;;;;;;;;;4318796;33;20213;-75
2021/12/11 12:42:29;;;;;;;21.27;5.57;;;;;;;;;;4345012;33;19942;-75
2021/12/11 12:45:13;;;;;;;12.15;5.65;;;;;;;;;;4346004;33;20020;-75
2021/12/11 12:47:59;;;;;;;;;;;;;;;;;;;;;
2021/12/11 12:50:53;;;;;;;;;;;;;;;;;;;;;
2021/12/11 12:59:52;;;;;;;18.37;4.18;;;;;;;;;;4351582;32;20126;-76
2021/12/11 13:02:24;;;;;;;25.70;3.58;;;;;;;;;;4341560;33;20073;-75
2021/12/11 13:04:58;;;;;;;14.65;3.75;;;;;;;;;;4357786;32;20061;-76
2021/12/11 13:07:45;;;;;;;18.83;3.95;;;;;;;;;;4358515;32;20096;-75
2021/12/11 13:10:20;;;;;;;11.18;3.45;;;;;;;;;;4358021;33;20079;-75
2021/12/11 13:12:56;;;;;;;9.82;2.87;;;;;;;;;;4365718;32;20027;-75
2021/12/11 13:15:24;;;;;;;13.75;2.97;;;;;;;;;;4362487;32;20015;-76
2021/12/11 13:17:51;;;;;;;20.15;3.70;;;;;;;;;;4373852;32;20019;-76
2021/12/11 13:20:23;;;;;;;15.30;4.45;;;;;;;;;;4361333;32;20436;-75
2021/12/11 13:22:49;;;;;;;18.10;4.65;;;;;;;;;;4375284;32;20019;-75
2021/12/11 13:25:19;;;;;;;14.20;3.75;;;;;;;;;;4374790;32;20027;-75
2021/12/11 13:30:33;;;;;;;19.90;5.28;;;;;;;;;;4371440;32;20078;-75
2021/12/11 13:33:08;;;;;;;;;;;;;;;;;;;;;
2021/12/11 13:35:37;;;;;;;16.75;3.40;;;;;;;;;;4371938;32;20065;-76
2021/12/11 13:38:10;;;;;;;16.30;3.40;;;;;;;;;;4365690;32;20400;-74
2021/12/11 13:40:37;;;;;;;12.43;3.10;;;;;;;;;;4341705;33;20079;-74
2021/12/11 13:43:03;;;;;;;17.50;4.03;;;;;;;;;;4371635;32;20023;-76
2021/12/11 13:45:28;;;;;;;;;;;;;;;;;;4375435;32;20061;-75
2021/12/11 13:51:15;;;;;;;;;;;;;;;;;;4365405;32;20023;-76
2021/12/11 13:53:45;;;;;;;22.35;3.78;;;;;;;;;;4374768;32;19981;-75
2021/12/11 13:56:42;;;;;;;15.93;2.92;;;;;;;;;;4374928;32;20066;-75
2021/12/11 13:59:45;;;;;;;10.55;3.20;;;;;;;;;;4342202;32;20024;-75
2021/12/11 14:02:15;;;;;;;16.05;4.55;;;;;;;;;;4361297;32;20097;-75
2021/12/11 14:10:39;;;;;;;11.35;3.20;;;;;;;;;;4313550;33;20059;-76
2021/12/11 14:13:10;;;;;;;17.90;3.95;;;;;;;;;;4341457;33;20107;-76
2021/12/11 14:15:36;;;;;;;16.95;5.65;;;;;;;;;;4357857;33;20019;-75
2021/12/11 14:18:17;;;;;;;;;;;;;;;;;;4362801;33;20446;-76
2021/12/11 14:23:52;;;;;;;18.62;4.12;;;;;;;;;;4362287;32;20049;-77
2021/12/11 14:29:29;;;;;;;15.95;4.60;;;;;;;;;;4360052;32;20065;-76
2021/12/11 14:34:36;;;;;;;17.80;4.78;;;;;;;;;;4377630;32;20444;-78
2021/12/11 14:37:30;;;;;;;13.70;4.57;;;;;;;;;;4372556;32;20055;-78
2021/12/11 14:40:18;;;;;;;18.23;4.65;;;;;;;;;;4373480;32;20386;-76
2021/12/11 14:42:57;;;;;;;14.05;4.53;;;;;;;;;;4371285;32;20019;-77
2021/12/11 14:45:24;;;;;;;18.45;4.47;;;;;;;;;;4377809;32;20046;-77
2021/12/11 14:47:50;;;;;;;27.30;5.12;;;;;;;;;;4377396;32;20346;-76
2021/12/11 14:50:17;;;;;;;21.23;5.28;;;;;;;;;;4377223;32;20031;-75
2021/12/11 14:52:42;;;;;;;21.92;5.37;;;;;;;;;;4377380;32;20362;-73
2021/12/11 14:55:08;;;;;;;;;;;;;;;;;;4377338;32;20019;-73
2021/12/11 14:57:35;;;;;;;16.25;4.12;;;;;;;;;;4372486;32;19997;-73
2021/12/11 15:00:04;;;;;;;14.80;4.75;;;;;;;;;;4361822;32;20171;-75
2021/12/11 15:02:33;;;;;;;16.00;3.70;;;;;;;;;;4361853;32;20022;-75
2021/12/11 15:05:15;;;;;;;16.52;4.53;;;;;;;;;;4373217;32;20413;-75
2021/12/11 15:07:40;;;;;;;14.90;3.47;;;;;;;;;;4375966;32;20046;-74
2021/12/11 15:10:23;;;;;;;;;;;;;;;;;;4377152;32;20076;-73
2021/12/11 15:16:34;;;;;;;17.40;4.90;;;;;;;;;;4303922;33;20050;-75
2021/12/11 15:19:10;;;;;;;14.70;4.53;;;;;;;;;;4295887;33;20063;-75
2021/12/11 15:21:37;;;;;;;19.40;5.00;;;;;;;;;;4355144;32;20019;-74
2021/12/11 15:24:03;;;;;;;18.40;4.43;;;;;;;;;;4368168;32;20069;-74
2021/12/11 15:26:31;;;;;;;;;;;;;;;;;;4374999;32;20073;-75
2021/12/11 15:32:12;;;;;;;13.13;4.07;;;;;;;;;;4375816;32;20081;-74
2021/12/11 15:34:57;;;;;;;13.15;4.65;;;;;;;;;;4363225;32;20010;-74
2021/12/11 15:37:38;;;;;;;16.30;4.82;;;;;;;;;;4376190;32;20379;-75
2021/12/11 15:40:23;;;;;;;17.58;5.12;;;;;;;;;;4376527;32;20007;-75
2021/12/11 15:43:00;;;;;;;16.00;4.30;;;;;;;;;;4376943;32;20027;-74
2021/12/11 15:45:29;;;;;;;17.15;4.72;;;;;;;;;;4375546;32;20053;-74
2021/12/11 15:47:57;;;;;;;16.77;5.18;;;;;;;;;;4376171;32;20104;-74
2021/12/11 15:50:28;;;;;;;17.60;6.72;;;;;;;;;;4376205;32;20022;-74
2021/12/11 15:53:19;;;;;;;23.83;7.37;;;;;;;;;;4376217;32;20065;-74
2021/12/11 15:55:45;;;;;;;23.17;8.82;;;;;;;;;;4383572;32;20057;-74
2021/12/11 15:58:11;;;;;;;23.58;7.25;;;;;;;;;;4373480;32;20058;-75
2021/12/11 16:00:36;;;;;;;;;;;;;;;;;;4378580;32;20035;-74
2021/12/11 16:03:03;;;;;;;23.75;9.63;;;;;;;;;;4375435;32;19934;-74
2021/12/11 16:05:34;;;;;;;19.77;8.93;;;;;;;;;;4376298;32;20142;-74
2021/12/11 16:08:00;;;;;;;20.40;8.30;;;;;;;;;;4376095;32;20035;-73
2021/12/11 16:10:25;;;;;;;;;;;;;;;;;;4376167;32;20023;-74
2021/12/11 16:12:53;;;;;;;18.10;8.05;;;;;;;;;;4376073;32;19956;-74
2021/12/11 16:15:27;;;;;;;21.25;7.55;;;;;;;;;;4361947;32;20439;-74
2021/12/11 16:17:53;;;;;;;22.58;7.57;;;;;;;;;;4365565;32;20058;-74
2021/12/11 16:20:18;;;;;;;;;;;;;;;;;;4375957;32;20325;-74
2021/12/11 16:22:45;;;;;;;21.73;8.00;;;;;;;;;;4376312;32;20233;-74
2021/12/11 16:25:14;;;;;;;19.10;7.30;;;;;;;;;;4375902;32;20157;-74
2021/12/11 16:27:40;;;;;;;24.27;8.32;;;;;;;;;;4368307;32;20106;-74
2021/12/11 16:30:05;;;;;;;;;;;;;;;;;;4362539;32;20208;-74
2021/12/11 16:32:31;;;;;;;30.27;10.48;;;;;;;;;;4362872;32;19962;-74
2021/12/11 16:34:56;;;;;;;;;;;;;;;;;;4360795;32;20066;-74
2021/12/11 16:37:29;;;;;;;24.35;8.35;;;;;;;;;;4360815;32;19939;-74
2021/12/11 16:39:58;;;;;;;21.40;7.70;;;;;;;;;;4360789;32;20024;-74
2021/12/11 16:42:40;;;;;;;23.38;9.77;;;;;;;;;;4360537;32;20035;-75
2021/12/11 16:45:08;;;;;;;39.58;11.98;;;;;;;;;;4360593;32;20023;-74
2021/12/11 16:47:36;;;;;;;21.92;9.75;;;;;;;;;;4360597;32;20023;-74
2021/12/11 16:50:07;;;;;;;29.15;9.48;;;;;;;;;;4362676;32;20062;-74
2021/12/11 16:52:40;;;;;;;22.98;9.05;;;;;;;;;;4365723;32;20035;-75
2021/12/11 16:55:15;;;;;;;25.85;8.43;;;;;;;;;;4361655;32;20027;-73
2021/12/11 16:57:52;;;;;;;19.87;7.78;;;;;;;;;;4360823;32;20372;-73
2021/12/11 17:00:20;;;;;;;24.83;7.80;;;;;;;;;;4374609;32;20022;-74
2021/12/11 17:02:48;;;;;;;27.17;7.57;;;;;;;;;;4374188;32;20035;-73
2021/12/11 17:05:21;;;;;;;18.87;6.90;;;;;;;;;;4374836;32;20108;-74
2021/12/11 17:07:54;;;;;;;14.93;6.75;;;;;;;;;;4360588;32;20486;-74
2021/12/11 17:10:22;;;;;;;23.98;8.23;;;;;;;;;;4360049;33;20050;-74
2021/12/11 17:12:47;;;;;;;19.02;8.23;;;;;;;;;;4360229;32;20050;-73
2021/12/11 17:15:19;;;;;;;;;;;;;;;;;;4360646;32;20106;-75
2021/12/11 17:17:44;;;;;;;29.23;9.27;;;;;;;;;;4360308;33;19956;-75
2021/12/11 17:20:12;;;;;;;;;;;;;;;;;;4362566;32;20024;-74
2021/12/11 17:22:59;;;;;;;28.48;9.05;;;;;;;;;;4374708;32;19961;-74
2021/12/11 17:25:25;;;;;;;;;;;;;;;;;;4375443;32;20018;-74
2021/12/11 17:27:55;;;;;;;17.17;8.45;;;;;;;;;;4374319;32;20025;-74
2021/12/11 17:30:21;;;;;;;21.70;8.95;;;;;;;;;;4375278;32;20074;-75
2021/12/11 17:32:46;;;;;;;;;;;;;;;;;;4375159;32;20043;-74
2021/12/11 17:35:17;;;;;;;27.08;10.13;;;;;;;;;;4374830;32;20350;-74
2021/12/11 17:37:42;;;;;;;28.20;10.77;;;;;;;;;;4375421;32;20094;-74
2021/12/11 17:40:16;;;;;;;;;;;;;;;;;;4375450;32;20027;-74
2021/12/11 17:42:51;;;;;;;32.33;9.85;;;;;;;;;;4360475;33;19958;-74
2021/12/11 17:45:23;;;;;;;28.10;10.02;;;;;;;;;;4360395;32;20077;-74
2021/12/11 17:48:02;;;;;;;25.40;9.25;;;;;;;;;;4362921;33;20069;-74
2021/12/11 17:50:29;;;;;;;30.23;11.40;;;;;;;;;;4363140;32;20046;-74
2021/12/11 17:52:57;;;;;;;25.25;9.15;;;;;;;;;;4363661;32;20027;-74
2021/12/11 18:08:11;;;;;;;20.37;8.48;;;;;;;;;;4288621;33;20060;-75
2021/12/11 18:10:42;;;;;;;19.95;8.90;;;;;;;;;;4245076;33;20039;-75
2021/12/11 18:13:30;;;;;;;35.30;13.40;;;;;;;;;;4253201;33;20037;-75
2021/12/11 18:19:24;;;;;;;21.05;9.70;;;;;;;;;;4301452;33;20051;-75
2021/12/11 18:21:59;;;;;;;25.55;10.13;;;;;;;;;;4302113;33;20036;-74
2021/12/11 18:24:33;;;;;;;29.58;11.82;;;;;;;;;;4368406;32;20030;-74
2021/12/11 18:27:02;;;;;;;28.10;10.85;;;;;;;;;;4375868;32;20433;-75
2021/12/11 18:29:33;;;;;;;25.33;10.68;;;;;;;;;;4377209;32;20360;-75
2021/12/11 18:31:59;;;;;;;28.87;13.00;;;;;;;;;;4376898;32;20034;-74
2021/12/11 18:34:25;;;;;;;35.20;14.68;;;;;;;;;;4377271;32;20043;-75
2021/12/11 18:36:50;;;;;;;;;;;;;;;;;;4377694;32;20420;-75
2021/12/11 18:39:26;;;;;;;39.13;15.02;;;;;;;;;;4377828;32;19935;-76
2021/12/11 18:41:54;;;;;;;;;;;;;;;;;;4377530;32;20018;-74
2021/12/11 18:44:22;;;;;;;51.25;19.37;;;;;;;;;;4363947;32;19945;-74
2021/12/11 18:47:19;;;;;;;47.67;19.58;;;;;;;;;;4377688;32;20496;-75
2021/12/11 18:49:55;;;;;;;37.97;18.15;;;;;;;;;;4364079;32;20023;-74
2021/12/11 18:52:33;;;;;;;44.80;18.25;;;;;;;;;;4377450;32;20074;-74
2021/12/11 18:55:05;;;;;;;38.20;17.52;;;;;;;;;;4380892;32;20034;-74
2021/12/11 18:57:38;;;;;;;40.95;17.98;;;;;;;;;;4382923;32;20018;-74
2021/12/11 19:00:08;;;;;;;48.10;19.35;;;;;;;;;;4360640;32;20062;-74
2021/12/11 19:02:39;;;;;;;39.47;17.75;;;;;;;;;;4375535;32;20061;-74
2021/12/11 19:05:19;;;;;;;41.65;18.77;;;;;;;;;;4362165;32;20080;-74
2021/12/11 19:07:45;;;;;;;38.42;21.12;;;;;;;;;;4362332;33;20024;-74
2021/12/11 19:10:10;;;;;;;;;;;;;;;;;;4362047;32;20105;-74
2021/12/11 19:12:37;;;;;;;43.33;20.67;;;;;;;;;;4367640;32;19934;-74
2021/12/11 19:15:08;;;;;;;40.72;23.12;;;;;;;;;;4376790;32;20148;-75
2021/12/11 19:17:33;;;;;;;44.55;21.83;;;;;;;;;;4377099;32;20072;-74
2021/12/11 19:19:58;;;;;;;;;;;;;;;;;;4377673;32;20023;-75
2021/12/11 19:22:27;;;;;;;50.30;24.00;;;;;;;;;;4376914;32;19972;-74
2021/12/11 19:24:52;;;;;;;43.25;24.08;;;;;;;;;;4377007;32;20060;-74
2021/12/11 19:27:27;;;;;;;;;;;;;;;;;;4376769;32;20024;-75
2021/12/11 19:29:57;;;;;;;55.60;25.08;;;;;;;;;;4363940;32;19930;-74
2021/12/11 19:32:31;;;;;;;45.75;23.92;;;;;;;;;;4377156;32;20085;-74
2021/12/11 19:34:56;;;;;;;45.35;23.83;;;;;;;;;;4364277;32;20068;-74
2021/12/11 19:37:21;;;;;;;;;;;;;;;;;;4376205;32;20027;-74
2021/12/11 19:39:53;;;;;;;50.22;24.05;;;;;;;;;;4362941;32;19954;-74
2021/12/11 19:42:21;;;;;;;49.20;25.37;;;;;;;;;;4362754;32;20139;-74
2021/12/11 19:44:48;;;;;;;49.00;24.83;;;;;;;;;;4362737;32;20049;-74
2021/12/11 19:47:25;;;;;;;47.62;24.37;;;;;;;;;;4362541;32;20053;-74
2021/12/11 19:49:50;;;;;;;57.53;26.20;;;;;;;;;;4376233;32;20345;-74
2021/12/11 19:52:16;;;;;;;;;;;;;;;;;;4363394;32;20027;-73
2021/12/11 19:54:55;;;;;;;;;;;;;;;;;;;;;
2021/12/11 19:58:00;;;;;;;48.75;22.85;;;;;;;;;;4352435;33;20066;-74
2021/12/11 20:00:29;;;;;;;49.60;24.23;;;;;;;;;;4300644;33;20033;-74
2021/12/11 20:03:07;;;;;;;49.60;22.65;;;;;;;;;;4314874;33;20160;-74
2021/12/11 20:06:08;;;;;;;57.38;25.37;;;;;;;;;;4343067;32;20435;-74
2021/12/11 20:11:56;;;;;;;50.10;22.08;;;;;;;;;;4376309;32;20099;-74
2021/12/11 20:14:45;;;;;;;45.17;21.95;;;;;;;;;;4376462;32;20059;-74
2021/12/11 20:17:26;;;;;;;40.78;20.95;;;;;;;;;;4376278;32;20409;-74
2021/12/11 20:19:51;;;;;;;54.13;21.85;;;;;;;;;;4376170;32;20054;-74